createdAt,value
2019-04-20T00:00:49.159Z,16.39
2019-04-20T00:03:11.967Z,16.41
2019-04-20T00:05:41.589Z,16.35
2019-04-20T00:08:16.712Z,16.32
2019-04-20T00:10:48.640Z,16.31
2019-04-20T00:13:19.470Z,16.29
2019-04-20T00:15:36.943Z,16.26
2019-04-20T00:18:08.133Z,16.22
2019-04-20T00:20:37.163Z,16.23
2019-04-20T00:23:19.758Z,16.23
2019-04-20T00:26:27.361Z,16.21
2019-04-20T00:29:07.206Z,16.18
2019-04-20T00:31:35.106Z,16.15
2019-04-20T00:34:02.702Z,16.14
2019-04-20T00:36:20.146Z,16.13
2019-04-20T00:38:53.393Z,16.09
2019-04-20T00:41:20.341Z,16.03
2019-04-20T00:43:47.263Z,16.00
2019-04-20T00:46:23.061Z,15.97
2019-04-20T00:48:53.437Z,15.93
2019-04-20T00:51:31.612Z,15.92
2019-04-20T00:53:48.151Z,15.89
2019-04-20T00:56:14.082Z,15.86
2019-04-20T00:58:52.169Z,15.80
2019-04-20T01:01:32.096Z,15.76
2019-04-20T01:04:03.670Z,15.71
2019-04-20T01:06:33.439Z,15.68
2019-04-20T01:08:47.006Z,15.66
2019-04-20T01:11:23.141Z,15.64
2019-04-20T01:13:51.933Z,15.66
2019-04-20T01:16:25.688Z,15.66
2019-04-20T01:18:43.786Z,15.63
2019-04-20T01:21:18.036Z,15.61
2019-04-20T01:23:48.018Z,15.59
2019-04-20T01:26:14.493Z,15.61
2019-04-20T01:28:54.236Z,15.60
2019-04-20T01:31:18.735Z,15.58
2019-04-20T01:33:48.435Z,15.56
2019-04-20T01:36:27.885Z,15.56
2019-04-20T01:38:49.795Z,15.53
2019-04-20T01:41:03.473Z,15.52
2019-04-20T01:43:33.233Z,15.51
2019-04-20T01:46:08.184Z,15.47
2019-04-20T01:48:33.954Z,15.45
2019-04-20T01:51:07.321Z,15.45
2019-04-20T01:53:51.357Z,15.47
2019-04-20T01:56:17.223Z,15.42
2019-04-20T01:58:55.526Z,15.40
2019-04-20T02:01:21.017Z,15.38
2019-04-20T02:03:51.875Z,15.34
2019-04-20T02:06:20.187Z,15.31
2019-04-20T02:08:51.710Z,15.27
2019-04-20T02:11:25.451Z,15.22
2019-04-20T02:13:51.622Z,15.22
2019-04-20T02:16:27.691Z,15.17
2019-04-20T02:19:08.242Z,15.15
2019-04-20T02:21:28.608Z,15.10
2019-04-20T02:23:49.675Z,15.05
2019-04-20T02:26:12.885Z,15.04
2019-04-20T02:29:09.554Z,15.02
2019-04-20T02:34:26.135Z,14.95
2019-04-20T02:36:58.574Z,14.92
2019-04-20T02:39:28.721Z,14.86
2019-04-20T02:42:08.001Z,14.81
2019-04-20T02:46:55.403Z,14.71
2019-04-20T02:51:46.720Z,14.64
2019-04-20T02:54:18.574Z,14.59
2019-04-20T02:56:47.990Z,14.55
2019-04-20T02:59:44.708Z,14.51
2019-04-20T03:01:36.042Z,14.47
2019-04-20T03:03:50.326Z,14.44
2019-04-20T03:06:23.318Z,14.38
2019-04-20T03:09:08.950Z,14.33
2019-04-20T03:11:40.415Z,14.27
2019-04-20T03:13:59.024Z,14.24
2019-04-20T03:16:24.306Z,14.20
2019-04-20T03:18:53.517Z,14.14
2019-04-20T03:21:34.521Z,14.11
2019-04-20T03:24:06.492Z,14.08
2019-04-20T03:26:31.253Z,14.04
2019-04-20T03:29:01.818Z,14.00
2019-04-20T03:32:03.625Z,13.96
2019-04-20T03:34:37.713Z,13.92
2019-04-20T03:36:49.540Z,13.90
2019-04-20T03:39:04.211Z,13.85
2019-04-20T03:41:25.979Z,13.82
2019-04-20T03:43:47.643Z,13.78
2019-04-20T03:46:19.279Z,13.75
2019-04-20T03:48:59.749Z,13.76
2019-04-20T03:51:40.134Z,13.74
2019-04-20T03:54:05.417Z,13.73
2019-04-20T03:56:46.325Z,13.72
2019-04-20T03:59:11.602Z,13.71
2019-04-20T04:02:15.904Z,13.71
2019-04-20T04:04:34.333Z,13.73
2019-04-20T04:06:46.909Z,13.72
2019-04-20T04:09:20.706Z,13.69
2019-04-20T04:11:55.996Z,13.68
2019-04-20T04:14:07.095Z,13.69
2019-04-20T04:16:42.777Z,13.70
2019-04-20T04:19:13.232Z,13.65
2019-04-20T04:21:50.154Z,13.64
2019-04-20T04:24:17.244Z,13.61
2019-04-20T04:26:47.452Z,13.60
2019-04-20T04:29:25.717Z,13.59
2019-04-20T04:32:00.330Z,13.56
2019-04-20T04:34:19.283Z,13.55
2019-04-20T04:36:55.072Z,13.56
2019-04-20T04:39:27.746Z,13.53
2019-04-20T04:42:02.151Z,13.53
2019-04-20T04:44:14.807Z,13.54
2019-04-20T04:46:32.889Z,13.56
2019-04-20T04:49:13.298Z,13.59
2019-04-20T04:51:42.679Z,13.60
2019-04-20T04:54:10.153Z,13.62
2019-04-20T04:56:29.950Z,13.62
2019-04-20T04:58:58.116Z,13.66
2019-04-20T05:01:30.917Z,13.68
2019-04-20T05:06:41.407Z,13.74
2019-04-20T05:08:58.478Z,13.79
2019-04-20T05:11:23.797Z,13.83
2019-04-20T05:13:59.712Z,13.86
2019-04-20T05:16:43.469Z,13.90
2019-04-20T05:19:13.371Z,13.96
2019-04-20T05:21:49.879Z,14.01
2019-04-20T05:24:22.575Z,14.06
2019-04-20T05:27:01.571Z,14.12
2019-04-20T05:29:17.776Z,14.17
2019-04-20T05:31:47.138Z,14.25
2019-04-20T05:34:30.538Z,14.31
2019-04-20T05:36:55.665Z,14.38
2019-04-20T05:39:32.872Z,14.47
2019-04-20T05:41:54.432Z,14.54
2019-04-20T05:44:45.766Z,14.66
2019-04-20T05:47:15.846Z,14.88
2019-04-20T05:49:40.167Z,15.89
2019-04-20T05:52:25.458Z,17.93
2019-04-20T05:54:42.948Z,19.51
2019-04-20T05:57:17.481Z,20.91
2019-04-20T05:59:49.398Z,21.88
2019-04-20T06:02:10.141Z,22.91
2019-04-20T06:04:55.965Z,23.22
2019-04-20T06:07:11.079Z,24.07
2019-04-20T06:09:33.630Z,24.59
2019-04-20T06:12:17.938Z,25.14
2019-04-20T06:14:36.997Z,25.39
2019-04-20T06:17:16.001Z,26.23
2019-04-20T06:19:39.443Z,26.27
2019-04-20T06:22:27.262Z,26.99
2019-04-20T06:25:01.946Z,27.19
2019-04-20T06:27:21.179Z,27.28
2019-04-20T06:29:46.043Z,27.50
2019-04-20T06:32:30.556Z,27.88
2019-04-20T06:34:47.881Z,28.16
2019-04-20T06:37:18.839Z,28.52
2019-04-20T06:39:47.480Z,29.26
2019-04-20T06:42:33.616Z,30.01
2019-04-20T06:44:53.587Z,30.15
2019-04-20T06:47:16.460Z,29.86
2019-04-20T06:50:03.474Z,29.43
2019-04-20T06:52:25.641Z,30.28
2019-04-20T06:55:03.384Z,30.45
2019-04-20T06:57:37.277Z,29.87
2019-04-20T07:00:07.389Z,29.93
2019-04-20T07:02:37.017Z,30.77
2019-04-20T07:05:02.530Z,30.36
2019-04-20T07:07:29.805Z,30.89
2019-04-20T07:10:08.836Z,31.58
2019-04-20T07:12:31.167Z,32.06
2019-04-20T07:14:47.468Z,31.63
2019-04-20T07:17:39.407Z,32.21
2019-04-20T07:20:00.225Z,33.34
2019-04-20T07:22:43.987Z,32.47
2019-04-20T07:25:05.423Z,32.52
2019-04-20T07:27:36.861Z,31.48
2019-04-20T07:30:08.096Z,32.06
2019-04-20T07:32:42.643Z,31.78
2019-04-20T07:35:03.358Z,32.05
2019-04-20T07:38:03.294Z,31.71
2019-04-20T07:40:07.169Z,31.67
2019-04-20T07:42:52.620Z,31.32
2019-04-20T07:45:19.095Z,29.70
2019-04-20T07:50:05.135Z,28.04
2019-04-20T07:52:33.015Z,27.41
2019-04-20T07:55:28.629Z,26.25
2019-04-20T07:57:34.178Z,25.57
2019-04-20T08:00:04.879Z,25.13
2019-04-20T08:02:51.442Z,24.91
2019-04-20T08:05:10.672Z,24.72
2019-04-20T08:07:40.144Z,24.65
2019-04-20T08:10:02.871Z,24.53
2019-04-20T08:12:56.873Z,24.73
2019-04-20T08:15:29.975Z,24.41
2019-04-20T08:17:56.466Z,23.86
2019-04-20T08:20:15.959Z,23.78
2019-04-20T08:22:47.911Z,23.62
2019-04-20T08:25:08.310Z,23.67
2019-04-20T08:27:27.779Z,23.75
2019-04-20T08:30:21.599Z,24.03
2019-04-20T08:32:54.606Z,23.94
2019-04-20T08:35:31.980Z,23.86
2019-04-20T08:38:14.895Z,23.46
2019-04-20T08:40:29.986Z,23.35
2019-04-20T08:43:02.458Z,23.05
2019-04-20T08:45:32.811Z,23.14
2019-04-20T08:47:56.434Z,23.01
2019-04-20T08:50:22.374Z,23.27
2019-04-20T08:55:19.676Z,23.48
2019-04-20T08:57:33.604Z,23.31
2019-04-20T09:00:04.616Z,23.28
2019-04-20T09:02:30.631Z,23.19
2019-04-20T09:05:09.024Z,22.98
2019-04-20T09:07:35.232Z,23.14
2019-04-20T09:10:24.379Z,23.23
2019-04-20T09:12:47.805Z,23.27
2019-04-20T09:14:59.132Z,23.33
2019-04-20T09:17:38.975Z,23.43
2019-04-20T09:20:09.669Z,23.30
2019-04-20T09:22:42.173Z,23.51
2019-04-20T09:25:27.888Z,23.55
2019-04-20T09:27:39.728Z,23.69
2019-04-20T09:30:08.930Z,23.58
2019-04-20T09:32:44.087Z,24.04
2019-04-20T09:35:20.918Z,24.46
2019-04-20T09:37:53.048Z,24.82
2019-04-20T09:40:40.271Z,24.77
2019-04-20T09:42:41.794Z,24.53
2019-04-20T09:45:19.813Z,24.57
2019-04-20T09:47:44.981Z,24.86
2019-04-20T09:50:27.767Z,25.14
2019-04-20T09:52:57.071Z,25.04
2019-04-20T09:55:24.753Z,24.75
2019-04-20T09:57:58.647Z,24.73
2019-04-20T10:00:25.687Z,24.73
2019-04-20T10:02:39.946Z,24.86
2019-04-20T10:05:09.422Z,24.87
2019-04-20T10:07:38.705Z,25.03
2019-04-20T10:10:18.797Z,25.42
2019-04-20T10:12:37.641Z,25.35
2019-04-20T10:15:12.385Z,25.47
2019-04-20T10:17:36.875Z,25.64
2019-04-20T10:20:11.220Z,25.82
2019-04-20T10:22:34.803Z,25.96
2019-04-20T10:25:04.579Z,25.92
2019-04-20T10:27:32.794Z,26.21
2019-04-20T10:30:04.695Z,26.25
2019-04-20T10:32:37.695Z,26.20
2019-04-20T10:35:02.612Z,26.32
2019-04-20T10:37:35.517Z,25.99
2019-04-20T10:40:04.845Z,26.23
2019-04-20T10:42:34.587Z,26.18
2019-04-20T10:45:04.717Z,26.12
2019-04-20T10:47:32.759Z,26.10
2019-04-20T10:50:01.235Z,25.71
2019-04-20T10:52:30.164Z,25.71
2019-04-20T10:54:59.035Z,26.32
2019-04-20T10:57:27.912Z,26.15
2019-04-20T10:59:57.583Z,25.79
2019-04-20T11:02:27.741Z,25.89
2019-04-20T11:04:57.034Z,25.94
2019-04-20T11:07:26.451Z,25.98
2019-04-20T11:10:07.899Z,26.23
2019-04-20T11:12:26.460Z,26.16
2019-04-20T11:14:56.432Z,26.26
2019-04-20T11:17:24.571Z,26.61
2019-04-20T11:19:53.285Z,26.62
2019-04-20T11:22:24.096Z,26.53
2019-04-20T11:24:54.311Z,26.53
2019-04-20T11:27:22.534Z,26.72
2019-04-20T11:29:51.900Z,26.57
2019-04-20T11:32:20.274Z,26.65
2019-04-20T11:34:51.170Z,26.87
2019-04-20T11:37:19.451Z,26.72
2019-04-20T11:39:48.905Z,27.01
2019-04-20T11:42:19.511Z,27.36
2019-04-20T11:44:48.814Z,27.27
2019-04-20T11:47:17.173Z,27.32
2019-04-20T11:49:46.555Z,27.28
2019-04-20T11:52:19.383Z,27.23
2019-04-20T11:54:46.082Z,27.32
2019-04-20T11:57:15.327Z,27.31
2019-04-20T11:59:43.162Z,27.15
2019-04-20T12:02:25.380Z,27.19
2019-04-20T12:05:10.217Z,27.46
2019-04-20T12:07:22.551Z,27.33
2019-04-20T12:09:51.435Z,27.21
2019-04-20T12:12:30.067Z,27.08
2019-04-20T12:14:48.497Z,27.09
2019-04-20T12:17:17.661Z,27.20
2019-04-20T12:19:46.003Z,27.29
2019-04-20T12:22:15.999Z,27.23
2019-04-20T12:24:44.553Z,27.32
2019-04-20T12:27:14.665Z,27.66
2019-04-20T12:29:43.613Z,27.71
2019-04-20T12:32:12.696Z,27.72
2019-04-20T12:34:41.374Z,27.67
2019-04-20T12:37:11.235Z,27.60
2019-04-20T12:39:40.290Z,27.54
2019-04-20T12:42:10.061Z,27.46
2019-04-20T12:44:39.392Z,27.81
2019-04-20T12:47:07.766Z,28.29
2019-04-20T12:49:37.898Z,27.90
2019-04-20T12:52:06.735Z,27.63
2019-04-20T12:54:36.882Z,27.71
2019-04-20T12:57:05.085Z,27.72
2019-04-20T12:59:34.071Z,27.64
2019-04-20T13:02:03.541Z,27.73
2019-04-20T13:04:33.259Z,27.97
2019-04-20T13:07:01.815Z,27.80
2019-04-20T13:09:34.569Z,28.12
2019-04-20T13:12:09.959Z,28.42
2019-04-20T13:15:00.278Z,28.24
2019-04-20T13:17:28.657Z,27.85
2019-04-20T13:19:57.593Z,27.38
2019-04-20T13:22:26.463Z,27.13
2019-04-20T13:24:55.330Z,27.11
2019-04-20T13:27:25.028Z,27.41
2019-04-20T13:29:55.811Z,27.67
2019-04-20T13:32:23.901Z,27.78
2019-04-20T13:34:53.923Z,27.61
2019-04-20T13:37:22.249Z,27.65
2019-04-20T13:39:51.105Z,27.39
2019-04-20T13:42:28.518Z,27.43
2019-04-20T13:44:57.170Z,27.59
2019-04-20T13:47:28.183Z,27.75
2019-04-20T13:49:56.596Z,27.47
2019-04-20T13:52:27.040Z,27.45
2019-04-20T13:54:56.265Z,27.41
2019-04-20T13:57:30.001Z,27.26
2019-04-20T14:00:00.069Z,27.09
2019-04-20T14:02:34.754Z,27.10
2019-04-20T14:05:04.657Z,27.46
2019-04-20T14:07:35.553Z,27.69
2019-04-20T14:10:05.732Z,27.56
2019-04-20T14:12:38.641Z,27.45
2019-04-20T14:15:05.067Z,27.38
2019-04-20T14:17:34.972Z,27.44
2019-04-20T14:20:09.799Z,27.49
2019-04-20T14:22:33.346Z,27.59
2019-04-20T14:25:01.279Z,27.37
2019-04-20T14:27:30.842Z,27.16
2019-04-20T14:30:01.305Z,27.13
2019-04-20T14:32:29.897Z,27.14
2019-04-20T14:34:58.863Z,27.13
2019-04-20T14:37:28.708Z,27.03
2019-04-20T14:39:56.565Z,27.04
2019-04-20T14:42:34.786Z,27.01
2019-04-20T14:44:55.509Z,27.15
2019-04-20T14:47:23.633Z,27.27
2019-04-20T14:49:52.877Z,27.21
2019-04-20T14:52:21.805Z,27.23
2019-04-20T14:54:50.661Z,26.85
2019-04-20T14:57:19.802Z,26.79
2019-04-20T14:59:55.802Z,26.72
2019-04-20T15:02:26.149Z,26.66
2019-04-20T15:04:55.010Z,26.69
2019-04-20T15:07:24.697Z,26.64
2019-04-20T15:09:53.012Z,26.64
2019-04-20T15:12:21.801Z,26.62
2019-04-20T15:14:50.755Z,26.57
2019-04-20T15:17:23.841Z,26.43
2019-04-20T15:20:57.990Z,26.30
2019-04-20T15:23:27.861Z,26.33
2019-04-20T15:25:56.062Z,26.29
2019-04-20T15:28:26.145Z,26.18
2019-04-20T15:30:56.296Z,26.16
2019-04-20T15:33:25.224Z,26.21
2019-04-20T15:35:54.013Z,26.15
2019-04-20T15:38:24.965Z,26.00
2019-04-20T15:40:53.311Z,25.79
2019-04-20T15:43:24.939Z,25.67
2019-04-20T15:45:51.626Z,25.60
2019-04-20T15:48:19.879Z,25.56
2019-04-20T15:50:49.793Z,25.46
2019-04-20T15:53:17.581Z,25.47
2019-04-20T15:55:47.414Z,25.42
2019-04-20T15:58:16.313Z,25.35
2019-04-20T16:00:44.686Z,25.28
2019-04-20T16:03:17.247Z,25.16
2019-04-20T16:05:49.422Z,25.07
2019-04-20T16:08:36.688Z,24.93
2019-04-20T16:11:04.928Z,24.83
2019-04-20T16:13:39.701Z,24.75
2019-04-20T16:16:03.979Z,24.60
2019-04-20T16:18:32.903Z,24.52
2019-04-20T16:21:09.224Z,24.48
2019-04-20T16:23:32.443Z,24.46
2019-04-20T16:26:07.799Z,24.37
2019-04-20T16:28:37.441Z,24.28
2019-04-20T16:31:09.652Z,24.30
2019-04-20T16:33:34.598Z,24.24
2019-04-20T16:36:04.701Z,24.17
2019-04-20T16:38:33.082Z,24.11
2019-04-20T16:41:02.185Z,24.07
2019-04-20T16:43:35.822Z,24.01
2019-04-20T16:46:01.309Z,24.01
2019-04-20T16:48:30.415Z,23.93
2019-04-20T16:51:00.637Z,23.85
2019-04-20T16:53:29.181Z,23.80
2019-04-20T16:55:58.955Z,23.75
2019-04-20T16:58:28.015Z,23.69
2019-04-20T17:00:56.394Z,23.62
2019-04-20T17:03:37.301Z,23.58
2019-04-20T17:05:54.321Z,23.57
2019-04-20T17:08:23.177Z,23.51
2019-04-20T17:10:52.075Z,23.46
2019-04-20T17:13:31.912Z,23.40
2019-04-20T17:15:49.965Z,23.31
2019-04-20T17:18:19.667Z,23.24
2019-04-20T17:20:48.624Z,23.23
2019-04-20T17:23:17.749Z,23.18
2019-04-20T17:25:46.406Z,23.13
2019-04-20T17:28:20.691Z,23.10
2019-04-20T17:30:59.045Z,23.04
2019-04-20T17:33:47.444Z,22.95
2019-04-20T17:36:12.424Z,22.92
2019-04-20T17:38:41.167Z,22.90
2019-04-20T17:41:22.446Z,22.80
2019-04-20T17:43:56.719Z,22.74
2019-04-20T17:46:12.084Z,22.69
2019-04-20T17:48:43.014Z,22.63
2019-04-20T17:51:23.527Z,22.57
2019-04-20T17:54:39.663Z,22.54
2019-04-20T17:57:09.299Z,22.44
2019-04-20T17:59:38.092Z,22.36
2019-04-20T18:02:24.595Z,22.28
2019-04-20T18:05:12.637Z,22.24
2019-04-20T18:07:35.492Z,22.16
2019-04-20T18:10:08.118Z,22.05
2019-04-20T18:12:25.819Z,21.95
2019-04-20T18:14:58.076Z,21.84
2019-04-20T18:17:29.295Z,21.83
2019-04-20T18:19:52.191Z,21.77
2019-04-20T18:22:21.412Z,21.65
2019-04-20T18:25:16.357Z,21.62
2019-04-20T18:27:38.799Z,21.56
2019-04-20T18:30:06.796Z,21.49
2019-04-20T18:32:27.320Z,21.40
2019-04-20T18:35:01.717Z,21.33
2019-04-20T18:37:30.811Z,21.25
2019-04-20T18:40:06.201Z,21.20
2019-04-20T18:42:32.862Z,21.14
2019-04-20T18:45:14.251Z,21.04
2019-04-20T18:47:45.681Z,20.96
2019-04-20T18:50:07.686Z,20.87
2019-04-20T18:52:24.327Z,20.77
2019-04-20T18:54:55.359Z,20.68
2019-04-20T18:57:26.083Z,20.57
2019-04-20T18:59:54.506Z,20.47
2019-04-20T19:02:26.918Z,20.41
2019-04-20T19:04:50.099Z,20.38
2019-04-20T19:07:19.759Z,20.33
2019-04-20T19:09:48.482Z,20.25
2019-04-20T19:12:16.628Z,20.21
2019-04-20T19:15:26.845Z,20.13
2019-04-20T19:17:49.794Z,20.07
2019-04-20T19:20:11.958Z,19.97
2019-04-20T19:22:40.187Z,19.92
2019-04-20T19:25:09.988Z,19.88
2019-04-20T19:27:46.313Z,19.82
2019-04-20T19:30:21.212Z,19.75
2019-04-20T19:32:54.277Z,19.68
2019-04-20T19:35:23.581Z,19.61
2019-04-20T19:37:50.406Z,19.58
2019-04-20T19:40:19.170Z,19.55
2019-04-20T19:42:47.915Z,19.48
2019-04-20T19:45:39.841Z,19.43
2019-04-20T19:47:54.481Z,19.35
2019-04-20T19:50:35.638Z,19.31
2019-04-20T19:53:05.681Z,19.23
2019-04-20T19:55:26.014Z,19.24
2019-04-20T19:57:56.511Z,19.19
2019-04-20T20:00:08.197Z,19.16
2019-04-20T20:02:36.473Z,19.10
2019-04-20T20:05:09.272Z,19.04
2019-04-20T20:07:38.736Z,18.99
2019-04-20T20:10:07.764Z,18.97
2019-04-20T20:12:33.670Z,18.87
2019-04-20T20:15:07.425Z,18.79
2019-04-20T20:17:48.399Z,18.75
2019-04-20T20:20:29.033Z,18.69
2019-04-20T20:22:37.739Z,18.64
2019-04-20T20:25:01.007Z,18.55
2019-04-20T20:27:39.408Z,18.51
2019-04-20T20:30:06.815Z,18.43
2019-04-20T20:32:44.285Z,18.39
2019-04-20T20:35:05.559Z,18.31
2019-04-20T20:37:34.782Z,18.19
2019-04-20T20:40:07.627Z,18.10
2019-04-20T20:42:35.839Z,18.01
2019-04-20T20:45:11.971Z,17.94
2019-04-20T20:47:50.617Z,17.90
2019-04-20T20:50:33.712Z,17.87
2019-04-20T20:52:38.182Z,17.76
2019-04-20T20:55:06.106Z,17.65
2019-04-20T20:57:26.283Z,17.53
2019-04-20T20:59:59.759Z,17.43
2019-04-20T21:02:33.669Z,17.34
2019-04-20T21:04:51.446Z,17.25
2019-04-20T21:07:20.602Z,17.20
2019-04-20T21:09:50.440Z,17.17
2019-04-20T21:12:22.314Z,17.11
2019-04-20T21:14:50.924Z,17.03
2019-04-20T21:17:23.381Z,16.99
2019-04-20T21:20:05.287Z,16.95
2019-04-20T21:22:27.297Z,16.95
2019-04-20T21:24:51.159Z,16.88
2019-04-20T21:27:22.009Z,16.83
2019-04-20T21:29:52.488Z,16.78
2019-04-20T21:32:19.566Z,16.78
2019-04-20T21:34:52.122Z,16.74
2019-04-20T21:37:18.925Z,16.69
2019-04-20T21:39:51.512Z,16.63
2019-04-20T21:42:19.070Z,16.58
2019-04-20T21:44:45.308Z,16.54
2019-04-20T21:47:15.701Z,16.46
2019-04-20T21:49:51.949Z,16.42
2019-04-20T21:52:18.373Z,16.38
2019-04-20T21:54:38.445Z,16.31
2019-04-20T21:57:11.138Z,16.27
2019-04-20T21:59:43.234Z,16.21
2019-04-20T22:02:16.725Z,16.16
2019-04-20T22:04:35.529Z,16.14
2019-04-20T22:07:04.678Z,16.09
2019-04-20T22:09:40.232Z,16.02
2019-04-20T22:12:02.311Z,15.97
2019-04-20T22:14:33.630Z,15.94
2019-04-20T22:17:00.836Z,15.86
2019-04-20T22:19:41.369Z,15.82
2019-04-20T22:22:09.001Z,15.80
2019-04-20T22:24:42.490Z,15.73
2019-04-20T22:27:07.551Z,15.69
2019-04-20T22:29:28.039Z,15.64
2019-04-20T22:32:03.097Z,15.60
2019-04-20T22:34:28.096Z,15.53
2019-04-20T22:36:55.997Z,15.51
2019-04-20T22:39:31.969Z,15.46
2019-04-20T22:42:03.410Z,15.42
2019-04-20T22:44:28.333Z,15.38
2019-04-20T22:46:56.360Z,15.34
2019-04-20T22:49:40.071Z,15.26
2019-04-20T22:52:02.857Z,15.22
2019-04-20T22:54:42.176Z,15.21
2019-04-20T22:57:03.399Z,15.17
2019-04-20T22:59:23.323Z,15.13
2019-04-20T23:01:55.213Z,15.10
2019-04-20T23:04:19.129Z,15.05
2019-04-20T23:06:50.077Z,15.02
2019-04-20T23:09:16.846Z,14.96
2019-04-20T23:11:45.269Z,14.87
2019-04-20T23:14:14.449Z,14.86
2019-04-20T23:16:47.183Z,14.82
2019-04-20T23:19:12.012Z,14.80
2019-04-20T23:21:48.545Z,14.73
2019-04-20T23:24:12.969Z,14.68
2019-04-20T23:26:42.150Z,14.64
2019-04-20T23:29:09.185Z,14.61
2019-04-20T23:31:39.026Z,14.55
2019-04-20T23:34:12.864Z,14.51
2019-04-20T23:36:40.337Z,14.46
2019-04-20T23:39:06.619Z,14.40
2019-04-20T23:41:35.716Z,14.34
2019-04-20T23:44:12.628Z,14.31
2019-04-20T23:46:45.267Z,14.25
2019-04-20T23:49:27.219Z,14.25
2019-04-20T23:52:09.507Z,14.22
2019-04-20T23:54:25.125Z,14.18
2019-04-20T23:56:49.983Z,14.16
2019-04-20T23:59:19.204Z,14.13
